Nearby METAR Reports

 

KSJC - San Jose, California, USA
Distance from station: NE 9mi, 14km
Updated: Tue, 05-23-2017 6:53pm CDT
Few Clouds
Few Clouds
 Wind from WNW
Wind: WNW 14 mph , 22 km/h
Temperature: 75°F , 24°C
Dew Point: 57°F , 14°C
Humidity: 54%
Barometer: 29.92 inHg , 1013.2 hPa
Clouds: Few Clouds
Visibility: 10 miles , 16 km
Cloud details: Few Clouds 6000 ft
Few Clouds 10000 ft
2017/05/23 23:53 KSJC 232353Z 30012KT 10SM FEW060 FEW100 24/14 A2992 RMK AO2 SLP129 T02390139 10256 20211 58003
KNUQ - Moffett Nas/Mtn, California, USA
Distance from station: N 9mi, 14km
Updated: Tue, 05-23-2017 6:56pm CDT
Clear
Clear
 Wind from N
Wind: N 14 mph , 22 km/h
Temperature: 70°F , 21°C
Dew Point: 57°F , 14°C
Humidity: 64%
Barometer: 29.93 inHg , 1013.5 hPa
Clouds: Clear
Visibility: 10 miles , 16 km
2017/05/23 23:56 KNUQ 232356Z 35012KT 10SM CLR 21/14 A2993 RMK AO2 SLP138 T02060144 10228 20178 58003
 
KPAO - Palo Alto, California, USA
Distance from station: NNW 14mi, 23km
Updated: Tue, 05-23-2017 6:47pm CDT
Clear
Clear
 Wind from NNW
Wind: NNW 18 mph , 30 km/h
Temperature: 70°F , 21°C
Dew Point: 59°F , 15°C
Humidity: 69%
Barometer: 29.93 inHg , 1013.5 hPa
Clouds: Clear
Visibility: 10 miles , 16 km
2017/05/23 23:47 KPAO 232347Z 33016KT 10SM SKC 21/15 A2993
KRHV - San Jose/Reid, California, USA
Distance from station: ENE 12mi, 19km
Updated: Tue, 05-23-2017 6:47pm CDT
Few Clouds
Few Clouds
 Wind from NW
Wind: NW 9 mph , 15 km/h
Temperature: 82°F , 28°C
Dew Point: 54°F , 12°C
Humidity: 37%
Barometer: 29.93 inHg , 1013.5 hPa
Clouds: Few Clouds
Visibility: 10 miles , 16 km
Cloud details: Few Clouds 5000 ft
2017/05/23 23:47 KRHV 232347Z 31008KT 10SM FEW050 28/12 A2993 RMK EST WIND
 
KOAK - Oakland, California, USA
Distance from station: NNW 31mi, 50km
Updated: Tue, 05-23-2017 6:53pm CDT
Few Clouds
Few Clouds
 Wind from WNW
Wind: WNW 21 mph , 33 km/h
Temperature: 64°F , 18°C
Dew Point: 54°F , 12°C
Humidity: 68%
Barometer: 29.95 inHg , 1014.2 hPa
Clouds: Few Clouds
Visibility: 10 miles , 16 km
Cloud details: Few Clouds 700 ft
Few Clouds 20000 ft
2017/05/23 23:53 KOAK 232353Z 30018KT 10SM FEW007 FEW200 18/12 A2995 RMK AO2 SLP141 T01780117 10211 20167 58003
KSQL - San Carlos Airpo, California, USA
Distance from station: NW 21mi, 34km
Updated: Tue, 05-23-2017 6:47pm CDT
Few Clouds
Few Clouds
 Wind from NNW
Wind: NNW 12 mph , 19 km/h
Temperature: 73°F , 23°C
Dew Point: 54°F , 12°C
Humidity: 50%
Barometer: 29.92 inHg , 1013.2 hPa
Clouds: Few Clouds
Visibility: 10 miles , 16 km
Cloud details: Few Clouds 20000 ft
2017/05/23 23:47 KSQL 232347Z 33010KT 10SM FEW200 23/12 A2992
 
KSFO - San Francisco, California, USA
Distance from station: NW 30mi, 49km
Updated: Tue, 05-23-2017 6:56pm CDT
Few Clouds
Few Clouds
 Wind from WNW
Wind: WNW 23 mph , 37 km/h
Temperature: 63°F , 17°C
Dew Point: 50°F , 10°C
Humidity: 64%
Barometer: 29.93 inHg , 1013.5 hPa
Clouds: Few Clouds
Visibility: 10 miles , 16 km
Cloud details: Few Clouds 800 ft
Few Clouds 20000 ft
2017/05/23 23:56 KSFO 232356Z 30020KT 10SM FEW008 FEW200 17/10 A2993 RMK AO2 SLP134 T01720100 10206 20167 56006
KE16 - San Martin, California, USA
Distance from station: ESE 27mi, 43km
Updated: Thu, 05-11-2017 6:00pm CDT
NOT Current
Clear
Clear
 Wind from SSW
Wind: SSW 10 mph , 17 km/h, Gust: 16 mph , 26 km/h
Temperature: 68°F , 20°C
Dew Point: 50°F , 10°C
Humidity: 53%
Barometer: 30.11 inHg , 1019.6 hPa
Clouds: Clear
Visibility: 10 miles , 16 km
2017/05/11 23:00 KE16 112300Z AUTO 21009G14KT 10SM CLR 20/10 A3011 RMK AO2
 
KWVI - Watsonville, California, USA
Distance from station: SSE 27mi, 44km
Updated: Tue, 05-23-2017 6:53pm CDT

 Wind from WSW
Wind: WSW 8 mph , 13 km/h
Temperature: 57°F , 14°C
Dew Point: 54°F , 12°C
Humidity: 88%
Barometer: 29.99 inHg , 1015.6 hPa
Visibility: 10 miles , 16 km
2017/05/23 23:53 KWVI 232353Z AUTO 25007KT 10SM 14/12 A2999 RMK AO2 SLP154 T01440122 10189 20144 $
KHAF - Half Moon Bay, California, USA
Distance from station: WNW 31mi, 50km
Updated: Tue, 05-23-2017 6:55pm CDT
Overcast
Overcast
 Wind from SSW
Wind: SSW 6 mph , 9 km/h
Temperature: 55°F , 13°C
Dew Point: 52°F , 11°C
Humidity: 88%
Barometer: 29.99 inHg , 1015.6 hPa
Clouds: Overcast
Visibility: 7 miles , 11 km
Cloud details: Overcast 800 ft
2017/05/23 23:55 KHAF 232355Z AUTO 21005KT 7SM OVC008 13/11 A2999 RMK AO2
 
KHWD - Hayward, California, USA
Distance from station: N 28mi, 44km
Updated: Tue, 05-23-2017 6:54pm CDT
Clear
Clear
 Wind from NW
Wind: NW 14 mph , 22 km/h
Temperature: 72°F , 22°C
Dew Point: 50°F , 10°C
Humidity: 47%
Barometer: 29.93 inHg , 1013.5 hPa
Clouds: Clear
Visibility: 10 miles , 16 km
2017/05/23 23:54 KHWD 232354Z 31012KT 10SM CLR 22/10 A2993 RMK AO2 SLP144 T02170100 10233 20178 58005
KLVK - Livermore, California, USA
Distance from station: NNE 31mi, 51km
Updated: Tue, 05-23-2017 6:53pm CDT
Clear
Clear
 Wind from W
Wind: W 15 mph , 24 km/h
Temperature: 82°F , 28°C
Dew Point: 50°F , 10°C
Humidity: 32%
Barometer: 29.88 inHg , 1011.9 hPa
Clouds: Clear
Visibility: 10 miles , 16 km
2017/05/23 23:53 KLVK 232353Z 28013KT 10SM CLR 28/10 A2988 RMK AO2 SLP115 T02830100 10333 20250 56003